Airfield :
LOGIN :

Register | Disclaimer

   EN    FR    IT 

 










Legend :    VFR   Marginal VFR   IFR   Intensive IFR   Very Intensive IFR
Visi :
Ceiling :
>= 8 km
>= 3000ft
5 to 8 km
1000 to 3000 ft
1500m to 5 km
500 to 1000 ft
800 to 1500m
200 to 500 ft
< 800m
< 200 ft
Symbols :   Thunderstorms  Fog  Heavy snow  Heavy precipitations  Wind > 20 kt
SIGMETs :     Misc.  Thunderstorms  Icing  Turbulence  Mountain Waves  Volcanic Ashes







- Airport Elevation : 142 ft
- IATA code : FLR


LIRQ - Firenze Amerigo Vespucci

CURRENT METAR :
  • 270250Z VRB02KT CAVOK 17/16 Q1018

EXPIRED METARs :
  • 270220Z VRB02KT CAVOK 19/16 Q1018
  • 270150Z 19003KT 170V240 CAVOK 19/17 Q1018
  • 270120Z 11003KT 080V150 CAVOK 19/16 Q1018
  • 270050Z VRB02KT CAVOK 19/16 Q1018
  • 270020Z VRB02KT CAVOK 19/17 Q1018

TAF TAF LIRQ
Valid from the 27 at 00:00 until the 28 at 00:00 UTC


262300Z 2700/2724 04007KT 9999 SCT030
No reported NOTAMs for that airfield.
2 SIGMETs reported for the Milano FIR (LIMM) :
 
Embedded thunderstorms
LIMM SIGMET 9 VALID 262344/270244 LIIP
LIMM MILANO FIR EMBD TS OBS N OF LINE N4634 E01020 - N4627 E01354 TOP FL380 MOV ENE WKN=
Severe turbulence
LIMM SIGMET 1 VALID 270150/270550 LIIP
LIMM MILANO FIR SEV TURB FCST S OF LINE N4406 E00737 - N4415 E01359 FL280/410 STNR NC=



MET'MAP, your aeronautical weather chart ! - Copyright ORBIFLY December 2007 - Disclaimer

ORBIFLY MET'MAP TEAM :

Programming & Development : Alexandra Zaïnal
Concept & Development : Baudouin d'Aumeries
Co-Development & Prog : Marc-Olivier Méhu
Technical & hardware support : Manuel Goepfert

Contact : metmap@orbifly.com




SOURCES & CREDITS :

   NOAA